createdAt,value
2019-03-12T00:00:07.409Z,11.40
2019-03-12T00:02:35.894Z,12.97
2019-03-12T00:05:06.162Z,9.63
2019-03-12T00:07:34.635Z,9.57
2019-03-12T00:10:03.368Z,13.10
2019-03-12T00:12:31.799Z,12.70
2019-03-12T00:15:00.346Z,10.27
2019-03-12T00:17:29.038Z,9.03
2019-03-12T00:19:57.567Z,12.40
2019-03-12T00:22:25.998Z,10.27
2019-03-12T00:24:54.451Z,10.53
2019-03-12T00:27:22.897Z,8.10
2019-03-12T00:29:51.349Z,11.10
2019-03-12T00:32:19.799Z,9.57
2019-03-12T00:34:48.295Z,12.13
2019-03-12T00:37:16.727Z,9.90
2019-03-12T00:39:45.189Z,11.07
2019-03-12T00:42:13.638Z,12.47
2019-03-12T00:44:42.096Z,13.13
2019-03-12T00:47:10.529Z,11.77
2019-03-12T00:49:38.978Z,10.20
2019-03-12T00:52:07.411Z,9.50
2019-03-12T00:54:35.871Z,12.23
2019-03-12T00:57:04.315Z,13.47
2019-03-12T00:59:32.775Z,18.17
2019-03-12T01:02:01.212Z,10.87
2019-03-12T01:04:29.663Z,10.67
2019-03-12T01:06:58.089Z,11.83
2019-03-12T01:09:26.557Z,12.53
2019-03-12T01:11:54.991Z,10.67
2019-03-12T01:14:23.465Z,12.40
2019-03-12T01:16:51.978Z,10.40
2019-03-12T01:19:20.421Z,10.17
2019-03-12T01:21:48.863Z,9.80
2019-03-12T01:24:17.322Z,11.73
2019-03-12T01:26:45.757Z,9.10
2019-03-12T01:29:14.227Z,12.97
2019-03-12T01:31:42.674Z,10.27
2019-03-12T01:34:11.180Z,7.83
2019-03-12T01:36:39.634Z,12.17
2019-03-12T01:39:08.068Z,10.70
2019-03-12T01:41:36.559Z,8.47
2019-03-12T01:44:04.986Z,11.57
2019-03-12T01:46:33.457Z,10.87
2019-03-12T01:49:01.962Z,9.13
2019-03-12T01:51:31.263Z,12.10
2019-03-12T01:53:59.943Z,10.57
2019-03-12T01:56:28.403Z,10.97
2019-03-12T01:58:56.832Z,11.53
2019-03-12T02:01:25.298Z,10.00
2019-03-12T02:03:53.735Z,11.10
2019-03-12T02:06:22.186Z,9.90
2019-03-12T02:08:50.618Z,10.50
2019-03-12T02:11:19.078Z,12.00
2019-03-12T02:13:47.512Z,10.17
2019-03-12T02:16:16.154Z,9.20
2019-03-12T02:18:44.625Z,9.80
2019-03-12T02:21:13.118Z,10.80
2019-03-12T02:23:41.578Z,9.07
2019-03-12T02:26:10.084Z,9.03
2019-03-12T02:28:38.529Z,9.63
2019-03-12T02:31:07.164Z,14.03
2019-03-12T02:33:35.716Z,11.47
2019-03-12T02:36:04.244Z,12.10
2019-03-12T02:38:32.674Z,9.43
2019-03-12T02:41:01.130Z,11.37
2019-03-12T02:43:29.645Z,12.17
2019-03-12T02:45:58.282Z,10.90
2019-03-12T02:48:26.779Z,10.77
2019-03-12T02:50:55.243Z,12.00
2019-03-12T02:53:23.697Z,11.23
2019-03-12T02:55:52.255Z,11.83
2019-03-12T02:58:20.753Z,13.97
2019-03-12T03:00:49.259Z,9.90
2019-03-12T03:03:17.754Z,14.37
2019-03-12T03:05:50.550Z,13.80
2019-03-12T03:08:20.642Z,10.97
2019-03-12T03:10:49.081Z,11.63
2019-03-12T03:13:17.538Z,8.93
2019-03-12T03:15:47.186Z,14.17
2019-03-12T03:18:15.679Z,9.93
2019-03-12T03:20:44.123Z,9.63
2019-03-12T03:23:12.664Z,10.27
2019-03-12T03:25:41.183Z,10.47
2019-03-12T03:28:09.705Z,10.97
2019-03-12T03:30:38.225Z,11.83
2019-03-12T03:33:06.717Z,12.73
2019-03-12T03:35:35.193Z,9.27
2019-03-12T03:38:03.728Z,11.73
2019-03-12T03:40:32.165Z,13.27
2019-03-12T03:43:00.633Z,11.63
2019-03-12T03:45:29.166Z,11.43
2019-03-12T03:47:57.756Z,10.57
2019-03-12T03:50:26.200Z,14.20
2019-03-12T03:52:54.727Z,13.30
2019-03-12T03:55:23.560Z,12.07
2019-03-12T03:57:53.546Z,9.63
2019-03-12T04:00:25.282Z,10.33
2019-03-12T04:02:53.753Z,10.27
2019-03-12T04:05:24.029Z,9.37
2019-03-12T04:07:52.508Z,10.37
2019-03-12T04:10:21.006Z,8.27
2019-03-12T04:12:49.471Z,10.53
2019-03-12T04:15:18.750Z,9.13
2019-03-12T04:17:48.249Z,12.23
2019-03-12T04:20:18.717Z,8.10
2019-03-12T04:22:47.346Z,9.57
2019-03-12T04:25:15.915Z,9.27
2019-03-12T04:27:44.482Z,8.67
2019-03-12T04:30:16.035Z,7.20
2019-03-12T04:32:44.469Z,6.53
2019-03-12T04:35:24.947Z,9.77
2019-03-12T04:37:53.527Z,10.60
2019-03-12T04:40:21.976Z,8.20
2019-03-12T04:42:50.435Z,8.70
2019-03-12T04:45:19.029Z,7.87
2019-03-12T04:47:47.453Z,10.50
2019-03-12T04:50:16.053Z,11.47
2019-03-12T04:52:44.568Z,8.07
2019-03-12T04:55:16.810Z,11.03
2019-03-12T04:57:45.322Z,7.27
2019-03-12T05:00:16.842Z,8.57
2019-03-12T05:02:45.357Z,8.67
2019-03-12T05:05:14.037Z,6.40
2019-03-12T05:07:42.562Z,8.57
2019-03-12T05:10:15.427Z,7.30
2019-03-12T05:12:43.941Z,8.63
2019-03-12T05:15:14.538Z,8.27
2019-03-12T05:17:43.424Z,7.20
2019-03-12T05:20:13.301Z,7.70
2019-03-12T05:22:41.758Z,8.53
2019-03-12T05:25:12.837Z,8.83
2019-03-12T05:27:41.419Z,10.97
2019-03-12T05:30:19.942Z,6.30
2019-03-12T05:32:48.508Z,7.70
2019-03-12T05:35:17.126Z,6.30
2019-03-12T05:37:45.670Z,7.40
2019-03-12T05:40:15.258Z,7.00
2019-03-12T05:42:43.715Z,6.23
2019-03-12T05:45:14.480Z,6.33
2019-03-12T05:47:42.908Z,5.57
2019-03-12T05:50:16.330Z,5.80
2019-03-12T05:52:44.848Z,6.30
2019-03-12T05:55:15.100Z,5.17
2019-03-12T05:57:43.712Z,5.63
2019-03-12T06:00:21.893Z,3.53
2019-03-12T06:02:50.343Z,4.30
2019-03-12T06:05:18.781Z,8.57
2019-03-12T06:07:47.236Z,4.67
2019-03-12T06:10:16.397Z,4.90
2019-03-12T06:12:44.921Z,3.80
2019-03-12T06:15:15.378Z,6.60
2019-03-12T06:17:43.809Z,5.63
2019-03-12T06:20:14.411Z,4.97
2019-03-12T06:22:43.232Z,4.27
2019-03-12T06:25:12.039Z,5.27
2019-03-12T06:27:40.484Z,11.87
2019-03-12T06:30:20.027Z,6.70
2019-03-12T06:32:52.783Z,5.00
2019-03-12T06:35:22.863Z,3.73
2019-03-12T06:37:55.727Z,2.40
2019-03-12T06:40:25.797Z,4.73
2019-03-12T06:42:58.551Z,6.17
2019-03-12T06:45:28.697Z,4.87
2019-03-12T06:47:58.857Z,5.73
2019-03-12T06:50:37.692Z,5.27
2019-03-12T06:53:23.933Z,2.40
2019-03-12T06:56:11.559Z,3.00
2019-03-12T06:58:53.503Z,2.77
2019-03-12T07:01:39.730Z,3.33
2019-03-12T07:04:09.883Z,2.63
2019-03-12T07:06:42.619Z,4.03
2019-03-12T07:09:28.403Z,4.07
2019-03-12T07:12:13.326Z,3.83
2019-03-12T07:14:46.142Z,6.00
2019-03-12T07:17:16.287Z,4.37
2019-03-12T07:19:54.883Z,3.00
2019-03-12T07:22:30.878Z,5.57
2019-03-12T07:25:01.001Z,4.50
2019-03-12T07:27:42.913Z,3.40
2019-03-12T07:30:30.016Z,4.23
2019-03-12T07:33:11.903Z,3.83
2019-03-12T07:35:44.526Z,3.10
2019-03-12T07:38:17.306Z,3.33
2019-03-12T07:40:47.476Z,4.57
2019-03-12T07:43:23.014Z,2.80
2019-03-12T07:45:53.106Z,5.50
2019-03-12T07:48:39.318Z,2.83
2019-03-12T07:51:12.367Z,3.53
2019-03-12T07:53:58.944Z,3.97
2019-03-12T07:56:25.378Z,2.63
2019-03-12T07:59:00.910Z,4.50
2019-03-12T08:01:42.612Z,3.50
2019-03-12T08:04:12.698Z,2.13
2019-03-12T08:06:45.232Z,4.13
2019-03-12T08:09:15.314Z,4.40
2019-03-12T08:11:45.386Z,3.47
2019-03-12T08:14:20.938Z,2.90
2019-03-12T08:17:02.436Z,4.20
2019-03-12T08:19:41.603Z,3.67
2019-03-12T08:22:23.593Z,4.37
2019-03-12T08:25:02.251Z,3.63
2019-03-12T08:27:35.295Z,4.70
2019-03-12T08:30:06.025Z,2.30
2019-03-12T08:32:47.974Z,4.77
2019-03-12T08:35:18.059Z,2.23
2019-03-12T08:37:48.134Z,2.27
2019-03-12T08:40:20.943Z,2.87
2019-03-12T08:42:54.836Z,3.23
2019-03-12T08:45:38.512Z,1.80
2019-03-12T08:48:14.304Z,3.27
2019-03-12T08:50:56.432Z,2.53
2019-03-12T08:53:32.347Z,4.50
2019-03-12T08:56:02.447Z,3.70
2019-03-12T08:58:32.513Z,3.70
2019-03-12T09:01:05.410Z,3.77
2019-03-12T09:03:53.658Z,2.10
2019-03-12T09:06:35.869Z,2.20
2019-03-12T09:09:07.785Z,1.50
2019-03-12T09:11:37.895Z,2.00
2019-03-12T09:14:13.652Z,2.37
2019-03-12T09:16:58.871Z,4.53
2019-03-12T09:19:45.238Z,4.00
2019-03-12T09:22:15.338Z,3.30
2019-03-12T09:24:45.435Z,2.60
2019-03-12T09:27:31.338Z,4.97
2019-03-12T09:30:01.427Z,4.03
2019-03-12T09:32:46.673Z,3.03
2019-03-12T09:35:19.472Z,2.83
2019-03-12T09:38:04.157Z,2.67
2019-03-12T09:40:39.978Z,2.10
2019-03-12T09:43:24.926Z,1.87
2019-03-12T09:46:11.089Z,2.80
2019-03-12T09:48:44.069Z,2.10
2019-03-12T09:51:16.621Z,2.30
2019-03-12T09:53:46.724Z,3.00
2019-03-12T09:56:25.383Z,1.77
2019-03-12T09:59:10.576Z,3.07
2019-03-12T10:01:49.514Z,2.70
2019-03-12T10:04:22.505Z,4.77
2019-03-12T10:07:07.222Z,5.53
2019-03-12T10:09:52.305Z,2.10
2019-03-12T10:12:40.123Z,2.00
2019-03-12T10:15:13.895Z,2.43
2019-03-12T10:17:46.617Z,2.70
2019-03-12T10:20:34.847Z,1.67
2019-03-12T10:23:16.510Z,3.43
2019-03-12T10:25:49.419Z,2.17
2019-03-12T10:28:19.497Z,4.10
2019-03-12T10:30:49.611Z,2.30
2019-03-12T10:33:19.697Z,1.93
2019-03-12T10:35:52.663Z,2.60
2019-03-12T10:39:10.666Z,3.40
2019-03-12T10:41:43.552Z,1.80
2019-03-12T10:44:13.626Z,4.23
2019-03-12T10:46:49.278Z,1.87
2019-03-12T10:49:17.710Z,2.70
2019-03-12T10:51:46.169Z,2.20
2019-03-12T10:54:14.627Z,2.40
2019-03-12T10:56:43.066Z,2.07
2019-03-12T10:59:11.521Z,1.47
2019-03-12T11:01:39.974Z,1.83
2019-03-12T11:04:08.415Z,2.23
2019-03-12T11:06:37.979Z,3.53
2019-03-12T11:09:06.982Z,2.57
2019-03-12T11:11:35.432Z,3.53
2019-03-12T11:14:04.206Z,3.57
2019-03-12T11:16:32.678Z,3.57
2019-03-12T11:19:01.130Z,2.50
2019-03-12T11:21:29.597Z,2.00
2019-03-12T11:23:58.151Z,2.53
2019-03-12T11:26:26.662Z,3.90
2019-03-12T11:28:55.152Z,4.10
2019-03-12T11:31:23.648Z,3.53
2019-03-12T11:33:52.084Z,3.23
2019-03-12T11:36:20.767Z,3.07
2019-03-12T11:38:49.223Z,3.67
2019-03-12T11:41:17.747Z,5.20
2019-03-12T11:43:46.285Z,3.27
2019-03-12T11:46:14.822Z,5.13
2019-03-12T11:48:43.380Z,4.13
2019-03-12T11:51:11.933Z,3.67
2019-03-12T11:53:40.464Z,5.77
2019-03-12T11:56:09.018Z,4.13
2019-03-12T11:58:37.593Z,4.93
2019-03-12T12:01:07.826Z,3.77
2019-03-12T12:03:36.362Z,4.33
2019-03-12T12:06:04.888Z,6.10
2019-03-12T12:08:33.404Z,4.97
2019-03-12T12:11:01.983Z,6.00
2019-03-12T12:13:30.505Z,5.67
2019-03-12T12:15:59.072Z,4.47
2019-03-12T12:18:27.543Z,3.37
2019-03-12T12:20:56.046Z,2.97
2019-03-12T12:23:24.507Z,4.00
2019-03-12T12:25:53.100Z,3.20
2019-03-12T12:28:21.552Z,2.30
2019-03-12T12:30:49.994Z,3.50
2019-03-12T12:33:18.521Z,2.47
2019-03-12T12:35:46.982Z,3.37
2019-03-12T12:38:15.655Z,3.83
2019-03-12T12:40:44.099Z,3.10
2019-03-12T12:43:12.564Z,3.10
2019-03-12T12:45:41.062Z,3.80
2019-03-12T12:48:09.535Z,2.97
2019-03-12T12:50:38.054Z,3.67
2019-03-12T12:53:06.669Z,5.33
2019-03-12T12:55:35.240Z,4.03
2019-03-12T12:58:03.696Z,3.63
2019-03-12T13:00:32.206Z,5.23
2019-03-12T13:03:01.508Z,2.77
2019-03-12T13:05:29.985Z,3.77
2019-03-12T13:07:58.494Z,3.80
2019-03-12T13:10:34.245Z,5.07
2019-03-12T13:13:02.804Z,4.20
2019-03-12T13:15:31.290Z,5.27
2019-03-12T13:17:59.723Z,4.83
2019-03-12T13:20:28.182Z,3.17
2019-03-12T13:22:56.762Z,5.00
2019-03-12T13:25:25.344Z,2.97
2019-03-12T13:27:53.807Z,4.40
2019-03-12T13:30:23.417Z,3.27
2019-03-12T13:32:51.915Z,2.70
2019-03-12T13:35:20.608Z,4.53
2019-03-12T13:37:49.421Z,5.60
2019-03-12T13:40:19.568Z,2.80
2019-03-12T13:42:48.144Z,3.20
2019-03-12T13:45:21.356Z,5.13
2019-03-12T13:47:49.997Z,4.40
2019-03-12T13:50:18.582Z,5.20
2019-03-12T13:52:47.018Z,5.03
2019-03-12T13:55:16.032Z,4.87
2019-03-12T13:57:45.166Z,3.37
2019-03-12T14:00:18.984Z,4.03
2019-03-12T14:02:47.494Z,3.30
2019-03-12T14:05:16.088Z,4.77
2019-03-12T14:07:44.852Z,3.07
2019-03-12T14:10:21.966Z,5.73
2019-03-12T14:12:51.950Z,5.13
2019-03-12T14:15:25.964Z,4.70
2019-03-12T14:17:54.473Z,3.80
2019-03-12T14:20:41.000Z,3.13
2019-03-12T14:23:14.533Z,6.10
2019-03-12T14:25:43.066Z,3.03
2019-03-12T14:28:11.579Z,3.13
2019-03-12T14:30:40.190Z,1.93
2019-03-12T14:33:08.871Z,5.70
2019-03-12T14:35:50.465Z,3.60
2019-03-12T14:38:07.685Z,7.87
2019-03-12T14:40:36.213Z,2.93
2019-03-12T14:43:04.721Z,4.60
2019-03-12T14:45:34.501Z,4.43
2019-03-12T14:48:03.013Z,4.00
2019-03-12T14:50:32.506Z,3.13
2019-03-12T14:53:21.315Z,3.80
2019-03-12T14:55:39.771Z,2.90
2019-03-12T14:58:08.225Z,5.40
2019-03-12T15:00:36.671Z,4.80
2019-03-12T15:03:05.112Z,4.00
2019-03-12T15:05:33.629Z,2.90
2019-03-12T15:08:02.230Z,3.67
2019-03-12T15:10:30.755Z,4.27
2019-03-12T15:12:59.231Z,3.37
2019-03-12T15:15:27.671Z,3.80
2019-03-12T15:17:56.130Z,6.20
2019-03-12T15:20:24.581Z,3.37
2019-03-12T15:22:53.025Z,4.77
2019-03-12T15:25:21.464Z,5.67
2019-03-12T15:27:50.286Z,3.97
2019-03-12T15:30:24.316Z,3.90
2019-03-12T15:32:52.766Z,2.83
2019-03-12T15:35:21.206Z,2.77
2019-03-12T15:37:49.654Z,5.60
2019-03-12T15:40:18.104Z,4.00
2019-03-12T15:42:46.562Z,4.23
2019-03-12T15:45:16.030Z,3.00
2019-03-12T15:47:44.564Z,3.27
2019-03-12T15:50:14.912Z,2.00
2019-03-12T15:52:43.370Z,3.47
2019-03-12T15:55:12.046Z,4.40
2019-03-12T15:57:40.578Z,2.93
2019-03-12T16:00:16.752Z,3.47
2019-03-12T16:02:45.252Z,4.67
2019-03-12T16:05:13.825Z,3.47
2019-03-12T16:07:42.296Z,4.43
2019-03-12T16:10:13.495Z,3.80
2019-03-12T16:12:42.012Z,4.40
2019-03-12T16:15:11.887Z,5.47
2019-03-12T16:17:40.476Z,3.23
2019-03-12T16:20:13.931Z,4.27
2019-03-12T16:22:42.542Z,3.27
2019-03-12T16:25:11.210Z,3.03
2019-03-12T16:27:39.681Z,6.07
2019-03-12T16:30:11.188Z,3.50
2019-03-12T16:32:39.642Z,3.03
2019-03-12T16:35:09.272Z,2.90
2019-03-12T16:37:37.837Z,2.23
2019-03-12T16:40:19.199Z,3.27
2019-03-12T16:42:47.826Z,3.00
2019-03-12T16:45:18.691Z,5.27
2019-03-12T16:47:47.119Z,4.40
2019-03-12T16:50:18.643Z,3.27
2019-03-12T16:52:47.080Z,3.73
2019-03-12T16:55:17.451Z,2.63
2019-03-12T16:57:45.918Z,1.83
2019-03-12T17:00:18.351Z,3.53
2019-03-12T17:02:46.993Z,3.93
2019-03-12T17:05:15.793Z,1.40
2019-03-12T17:07:44.222Z,1.83
2019-03-12T17:10:15.020Z,2.83
2019-03-12T17:12:43.534Z,2.77
2019-03-12T17:15:20.331Z,2.43
2019-03-12T17:17:48.828Z,4.00
2019-03-12T17:20:17.599Z,4.77
2019-03-12T17:22:46.119Z,3.97
2019-03-12T17:25:14.805Z,3.33
2019-03-12T17:27:43.304Z,2.00
2019-03-12T17:30:16.856Z,3.07
2019-03-12T17:32:45.442Z,3.90
2019-03-12T17:35:16.988Z,2.90
2019-03-12T17:37:45.419Z,3.90
2019-03-12T17:40:16.515Z,2.03
2019-03-12T17:42:45.069Z,5.43
2019-03-12T17:45:13.889Z,4.00
2019-03-12T17:47:42.342Z,5.53
2019-03-12T17:50:13.010Z,3.03
2019-03-12T17:52:41.452Z,4.17
2019-03-12T17:55:12.334Z,5.90
2019-03-12T17:57:40.842Z,3.07
2019-03-12T18:00:14.889Z,3.93
2019-03-12T18:02:43.314Z,1.90
2019-03-12T18:05:12.962Z,3.00
2019-03-12T18:07:41.474Z,4.23
2019-03-12T18:10:12.595Z,5.70
2019-03-12T18:12:41.098Z,7.97
2019-03-12T18:15:12.679Z,4.13
2019-03-12T18:17:41.186Z,4.50
2019-03-12T18:20:12.858Z,3.43
2019-03-12T18:22:41.306Z,5.20
2019-03-12T18:25:12.891Z,2.17
2019-03-12T18:27:41.331Z,3.33
2019-03-12T18:30:14.986Z,5.07
2019-03-12T18:32:43.502Z,3.27
2019-03-12T18:35:12.173Z,3.27
2019-03-12T18:37:40.699Z,4.30
2019-03-12T18:40:12.358Z,4.37
2019-03-12T18:42:40.831Z,4.17
2019-03-12T18:45:14.843Z,3.47
2019-03-12T18:47:43.371Z,2.40
2019-03-12T18:50:16.606Z,3.67
2019-03-12T18:52:45.170Z,3.93
2019-03-12T18:55:31.185Z,2.63
2019-03-12T18:57:59.651Z,2.33
2019-03-12T19:00:28.229Z,5.00
2019-03-12T19:02:56.696Z,4.83
2019-03-12T19:05:28.054Z,1.10
2019-03-12T19:07:55.347Z,2.33
2019-03-12T19:10:23.853Z,4.00
2019-03-12T19:12:52.394Z,4.43
2019-03-12T19:15:20.844Z,3.70
2019-03-12T19:17:49.299Z,3.00
2019-03-12T19:20:18.572Z,1.97
2019-03-12T19:22:47.084Z,5.77
2019-03-12T19:25:33.205Z,2.83
2019-03-12T19:28:01.660Z,3.13
2019-03-12T19:30:30.234Z,2.20
2019-03-12T19:33:12.522Z,3.23
2019-03-12T19:35:41.053Z,2.30
2019-03-12T19:38:09.657Z,2.33
2019-03-12T19:40:40.807Z,2.83
2019-03-12T19:43:09.251Z,4.97
2019-03-12T19:45:37.730Z,2.30
2019-03-12T19:48:06.379Z,3.30
2019-03-12T19:50:35.364Z,2.10
2019-03-12T19:53:04.050Z,1.77
2019-03-12T19:55:38.064Z,2.73
2019-03-12T19:58:06.611Z,2.90
2019-03-12T20:00:35.400Z,1.90
2019-03-12T20:03:11.859Z,2.43
2019-03-12T20:05:34.239Z,1.60
2019-03-12T20:08:02.777Z,2.53
2019-03-12T20:10:59.574Z,2.87
2019-03-12T20:13:47.416Z,1.70
2019-03-12T20:16:27.902Z,1.30
2019-03-12T20:19:27.580Z,1.30
2019-03-12T20:22:22.903Z,1.30
2019-03-12T20:25:19.764Z,2.93
2019-03-12T20:28:16.271Z,2.23
2019-03-12T20:30:50.807Z,1.57
2019-03-12T20:33:28.345Z,3.07
2019-03-12T20:36:16.333Z,1.00
2019-03-12T20:39:16.389Z,1.37
2019-03-12T20:42:16.432Z,2.10
2019-03-12T20:44:56.751Z,4.67
2019-03-12T20:47:46.019Z,2.03
2019-03-12T20:50:33.917Z,2.33
2019-03-12T20:53:27.678Z,4.33
2019-03-12T20:56:25.997Z,1.33
2019-03-12T20:59:19.683Z,2.90
2019-03-12T21:02:19.478Z,4.23
2019-03-12T21:05:10.169Z,2.83
2019-03-12T21:08:13.243Z,1.40
2019-03-12T21:11:17.478Z,2.33
2019-03-12T21:14:03.655Z,1.67
2019-03-12T21:16:50.240Z,2.70
2019-03-12T21:19:37.977Z,2.47
2019-03-12T21:22:15.367Z,3.70
2019-03-12T21:25:19.819Z,1.23
2019-03-12T21:27:51.370Z,1.87
2019-03-12T21:30:22.913Z,1.70
2019-03-12T21:32:51.437Z,3.13
2019-03-12T21:35:19.904Z,1.23
2019-03-12T21:37:48.356Z,0.80
2019-03-12T21:40:16.841Z,2.37
2019-03-12T21:42:45.292Z,4.00
2019-03-12T21:45:14.006Z,1.43
2019-03-12T21:47:42.612Z,2.20
2019-03-12T21:50:11.351Z,1.73
2019-03-12T21:52:39.786Z,3.40
2019-03-12T21:55:11.567Z,1.33
2019-03-12T21:57:40.122Z,2.63
2019-03-12T22:00:14.408Z,1.00
2019-03-12T22:02:42.860Z,2.20
2019-03-12T22:05:11.471Z,1.63
2019-03-12T22:07:39.917Z,3.43
2019-03-12T22:10:10.824Z,1.00
2019-03-12T22:12:39.248Z,0.57
2019-03-12T22:15:10.748Z,2.40
2019-03-12T22:17:39.184Z,2.93
2019-03-12T22:20:12.102Z,0.60
2019-03-12T22:22:42.185Z,1.03
2019-03-12T22:25:12.878Z,1.00
2019-03-12T22:27:41.398Z,0.80
2019-03-12T22:30:21.662Z,0.97
2019-03-12T22:32:50.161Z,2.07
2019-03-12T22:35:18.610Z,2.67
2019-03-12T22:37:47.044Z,0.67
2019-03-12T22:40:15.836Z,2.23
2019-03-12T22:42:44.275Z,1.40
2019-03-12T22:45:12.977Z,0.97
2019-03-12T22:47:41.408Z,0.50
2019-03-12T22:50:14.195Z,3.97
2019-03-12T22:52:42.708Z,0.87
2019-03-12T22:55:14.511Z,1.30
2019-03-12T22:57:43.050Z,1.03
2019-03-12T23:00:14.571Z,1.57
2019-03-12T23:02:43.102Z,1.10
2019-03-12T23:05:11.879Z,3.07
2019-03-12T23:07:40.447Z,1.37
2019-03-12T23:10:13.615Z,1.83
2019-03-12T23:12:42.172Z,1.23
2019-03-12T23:15:16.136Z,0.93
2019-03-12T23:17:44.829Z,0.90
2019-03-12T23:20:15.805Z,3.53
2019-03-12T23:22:44.263Z,1.33
2019-03-12T23:25:12.843Z,0.97
2019-03-12T23:27:41.368Z,1.83
2019-03-12T23:30:20.162Z,0.73
2019-03-12T23:32:48.748Z,1.20
2019-03-12T23:35:17.322Z,1.10
2019-03-12T23:37:45.781Z,1.30
2019-03-12T23:40:15.850Z,1.07
2019-03-12T23:42:44.304Z,0.60
2019-03-12T23:45:14.757Z,1.63
2019-03-12T23:47:43.600Z,1.97
2019-03-12T23:50:18.416Z,1.70
2019-03-12T23:52:46.922Z,1.03
2019-03-12T23:55:17.372Z,3.30
2019-03-12T23:57:45.986Z,1.27
